Time;durP1;ratioP1;P1;durP2;ratioP2;P2;SDS_P1;SDS_P2;PMS_P1;PMS_P2;Temp;Humidity;BMP_temperature;BMP_pressure;BME280_temperature;BME280_humidity;BME280_pressure;Samples;Min_cycle;Max_cycle;Signal;HPM_P1;HPM_P2
2023/05/11 14:08:59;;;;;;;22.98;20.13;;;16.10;99.90;;;;;;5040971;28;20581;-85
2023/05/11 14:11:25;;;;;;;25.90;21.67;;;16.00;99.90;;;;;;5060886;28;20044;-86
2023/05/11 14:13:51;;;;;;;31.98;22.25;;;16.00;99.90;;;;;;5057843;28;20455;-85
2023/05/11 14:16:18;;;;;;;26.80;23.00;;;15.90;99.90;;;;;;5063247;28;20043;-85
2023/05/11 14:18:44;;;;;;;24.20;20.88;;;15.90;99.90;;;;;;5059800;28;20116;-86
2023/05/11 14:21:10;;;;;;;29.55;24.92;;;15.80;99.90;;;;;;5060925;28;20466;-84
2023/05/11 14:23:36;;;;;;;36.65;21.90;;;15.80;99.90;;;;;;5056602;28;20082;-85
2023/05/11 14:26:02;;;;;;;24.88;7.30;;;15.90;99.90;;;;;;5060577;28;20067;-86
2023/05/11 14:28:30;;;;;;;11.27;5.63;;;15.80;99.90;;;;;;5059272;28;20055;-83
2023/05/11 14:30:56;;;;;;;15.05;5.22;;;15.40;99.90;;;;;;5065169;28;20064;-84
2023/05/11 14:33:23;;;;;;;11.70;4.57;;;15.10;99.90;;;;;;5063271;28;20109;-86
2023/05/11 14:35:49;;;;;;;8.55;4.80;;;14.80;99.90;;;;;;5061262;28;20037;-85
2023/05/11 14:38:15;;;;;;;11.27;5.07;;;14.50;99.90;;;;;;5061472;28;20037;-86
2023/05/11 14:40:40;;;;;;;9.98;6.07;;;14.40;99.90;;;;;;5057478;28;20048;-86
2023/05/11 14:43:06;;;;;;;10.13;5.82;;;14.30;99.90;;;;;;5062712;28;20044;-85
2023/05/11 14:45:32;;;;;;;10.00;6.78;;;14.10;99.90;;;;;;5061025;28;20035;-86
2023/05/11 14:47:57;;;;;;;11.38;7.13;;;14.10;99.90;;;;;;5047047;28;20052;-86
2023/05/11 14:50:23;;;;;;;10.15;6.13;;;14.00;99.90;;;;;;5060047;28;20079;-88
2023/05/11 14:52:49;;;;;;;6.72;6.03;;;13.90;99.90;;;;;;5069799;28;20128;-87
2023/05/11 14:55:14;;;;;;;10.50;7.88;;;13.90;99.90;;;;;;5067989;28;20081;-87
2023/05/11 14:57:41;;;;;;;9.75;7.22;;;13.90;99.90;;;;;;5063159;28;20098;-87
2023/05/11 15:00:08;;;;;;;12.73;8.50;;;13.80;99.90;;;;;;5059485;28;20478;-88
2023/05/11 15:02:33;;;;;;;17.80;7.45;;;13.90;99.90;;;;;;5061358;28;20040;-87
2023/05/11 15:04:59;;;;;;;8.82;6.65;;;14.00;99.90;;;;;;5057680;28;20869;-91
2023/05/11 15:07:25;;;;;;;7.30;6.60;;;13.90;99.90;;;;;;5059702;28;20575;-88
2023/05/11 15:09:51;;;;;;;9.23;7.00;;;13.90;99.90;;;;;;5030634;28;20459;-88
2023/05/11 15:12:17;;;;;;;9.48;7.88;;;13.90;99.90;;;;;;5039727;28;20101;-89
2023/05/11 15:14:42;;;;;;;7.25;6.55;;;13.90;99.90;;;;;;4974899;28;20041;-87
2023/05/11 15:17:08;;;;;;;8.35;6.55;;;14.00;99.90;;;;;;5031113;28;20036;-91
2023/05/11 15:19:34;;;;;;;7.30;6.20;;;14.00;99.90;;;;;;4998682;28;20079;-86
2023/05/11 15:22:00;;;;;;;9.77;7.47;;;14.00;99.90;;;;;;5019921;28;20064;-86
2023/05/11 15:24:25;;;;;;;8.60;6.78;;;14.00;99.90;;;;;;4974515;28;20549;-87
2023/05/11 15:26:51;;;;;;;8.57;5.38;;;14.00;99.90;;;;;;4980724;28;20046;-89
2023/05/11 15:29:17;;;;;;;8.90;5.82;;;14.10;99.90;;;;;;4993745;28;20056;-87
2023/05/11 15:31:42;;;;;;;10.27;5.22;;;14.20;99.90;;;;;;4969065;28;20133;-84
2023/05/11 15:34:08;;;;;;;12.27;5.75;;;14.20;99.90;;;;;;5037283;28;20041;-85
2023/05/11 15:36:33;;;;;;;9.00;5.43;;;14.30;99.90;;;;;;5003550;28;20054;-86
2023/05/11 15:38:59;;;;;;;9.80;6.78;;;14.30;99.90;;;;;;4995065;28;20033;-84
2023/05/11 15:41:24;;;;;;;7.28;6.45;;;14.30;99.90;;;;;;4985514;28;20173;-88
2023/05/11 15:43:53;;;;;;;7.10;5.80;;;14.30;99.90;;;;;;4977769;28;20391;-84
2023/05/11 15:46:22;;;;;;;7.35;5.82;;;14.30;99.90;;;;;;4982748;28;20451;-89
2023/05/11 15:48:47;;;;;;;14.35;7.95;;;14.30;99.90;;;;;;5015106;28;20037;-83
2023/05/11 15:51:13;;;;;;;11.50;7.75;;;14.30;99.90;;;;;;4985178;28;20034;-84
2023/05/11 15:53:38;;;;;;;7.60;6.80;;;14.50;99.90;;;;;;4989821;28;20478;-86
2023/05/11 15:56:05;;;;;;;7.50;6.80;;;14.60;99.90;;;;;;4979354;28;20046;-83
2023/05/11 15:58:30;;;;;;;9.40;6.88;;;14.60;99.90;;;;;;5035658;28;20131;-81
2023/05/11 16:00:56;;;;;;;8.52;7.40;;;14.80;99.90;;;;;;5032282;28;20495;-83
2023/05/11 16:03:22;;;;;;;8.00;6.82;;;14.90;99.90;;;;;;4988227;28;20049;-82
2023/05/11 16:05:47;;;;;;;7.97;6.60;;;15.10;99.90;;;;;;5018861;28;20032;-82
2023/05/11 16:08:13;;;;;;;7.75;7.05;;;15.20;99.90;;;;;;4993510;28;20293;-82
2023/05/11 16:10:39;;;;;;;8.45;6.65;;;15.30;99.90;;;;;;5057307;28;20097;-82
2023/05/11 16:13:05;;;;;;;8.50;6.38;;;15.50;99.90;;;;;;5064675;28;20041;-82
2023/05/11 16:15:30;;;;;;;7.45;6.65;;;15.60;99.90;;;;;;5060972;28;20613;-83
2023/05/11 16:17:57;;;;;;;7.13;6.43;;;15.70;99.90;;;;;;5062042;28;20036;-82
2023/05/11 16:20:24;;;;;;;12.27;7.53;;;15.80;99.90;;;;;;5063355;28;20036;-84
2023/05/11 16:22:49;;;;;;;8.93;6.60;;;15.90;99.90;;;;;;5062083;28;20059;-83
2023/05/11 16:25:16;;;;;;;9.98;6.28;;;16.00;99.90;;;;;;5064596;28;20397;-82
2023/05/11 16:27:41;;;;;;;6.43;5.78;;;16.00;99.90;;;;;;5062480;28;20487;-83
2023/05/11 16:30:07;;;;;;;12.65;6.00;;;15.90;99.90;;;;;;5066616;28;20397;-82
2023/05/11 16:32:33;;;;;;;7.30;5.57;;;15.90;99.90;;;;;;5063984;28;20036;-82
2023/05/11 16:34:59;;;;;;;6.57;5.88;;;15.80;99.90;;;;;;5061878;28;20108;-82
2023/05/11 16:37:24;;;;;;;5.93;5.00;;;15.70;99.90;;;;;;5059308;28;20052;-83
2023/05/11 16:39:50;;;;;;;6.72;6.03;;;15.60;99.90;;;;;;5061463;28;20127;-83
2023/05/11 16:42:15;;;;;;;12.00;5.75;;;15.60;99.90;;;;;;5062940;28;20078;-82
2023/05/11 16:44:41;;;;;;;6.20;5.60;;;15.50;99.90;;;;;;5044053;28;20497;-82
2023/05/11 16:47:07;;;;;;;6.18;5.57;;;15.40;99.90;;;;;;5050101;28;20056;-82
2023/05/11 16:49:32;;;;;;;9.25;6.65;;;15.30;99.90;;;;;;5065993;28;20047;-82
2023/05/11 16:51:59;;;;;;;7.60;6.45;;;15.30;99.90;;;;;;5062080;28;20025;-84
2023/05/11 16:54:25;;;;;;;26.85;7.28;;;15.30;99.90;;;;;;5063330;28;20484;-83
2023/05/11 16:56:52;;;;;;;7.95;6.38;;;15.30;99.90;;;;;;5064753;28;20036;-82
2023/05/11 16:59:18;;;;;;;8.73;6.55;;;15.20;99.90;;;;;;5065741;28;20032;-84
2023/05/11 17:01:44;;;;;;;7.40;6.32;;;15.20;99.90;;;;;;5064351;28;20377;-85
2023/05/11 17:04:11;;;;;;;10.55;6.93;;;15.10;99.90;;;;;;5065019;28;20043;-82
2023/05/11 17:06:36;;;;;;;10.80;6.90;;;15.10;99.90;;;;;;5058015;28;20120;-82
2023/05/11 17:09:02;;;;;;;6.38;5.43;;;15.10;99.90;;;;;;5062327;28;20112;-83
2023/05/11 17:11:28;;;;;;;9.90;6.30;;;15.10;99.90;;;;;;5061596;28;20044;-82
2023/05/11 17:13:54;;;;;;;9.27;6.63;;;15.00;99.90;;;;;;5066398;28;20037;-86
2023/05/11 17:16:20;;;;;;;8.82;5.78;;;15.00;99.90;;;;;;5060699;28;20501;-82
2023/05/11 17:18:46;;;;;;;6.63;6.03;;;14.90;99.90;;;;;;5059226;28;20044;-83
2023/05/11 17:21:12;;;;;;;8.25;5.63;;;14.80;99.90;;;;;;5062801;28;20029;-83
2023/05/11 17:23:37;;;;;;;7.85;6.30;;;14.80;99.90;;;;;;5064300;28;20036;-84
2023/05/11 17:26:10;;;;;;;10.18;6.25;;;14.70;99.90;;;;;;5061664;28;20547;-83
2023/05/11 17:28:38;;;;;;;6.95;6.20;;;14.70;99.90;;;;;;5066960;28;20683;-82
2023/05/11 17:31:11;;;;;;;7.10;6.40;;;14.70;99.90;;;;;;5062500;28;20446;-89
2023/05/11 17:33:37;;;;;;;8.52;7.03;;;14.60;99.90;;;;;;5063091;28;20507;-82
2023/05/11 17:36:03;;;;;;;6.90;5.63;;;14.60;99.90;;;;;;5065503;28;20016;-82
2023/05/11 17:38:29;;;;;;;9.40;5.35;;;14.50;99.90;;;;;;5061212;28;20037;-82
2023/05/11 17:40:59;;;;;;;9.27;5.60;;;14.60;99.90;;;;;;5035558;28;20493;-83
2023/05/11 17:43:25;;;;;;;7.55;6.32;;;14.50;99.90;;;;;;5057984;28;20037;-84
2023/05/11 17:45:51;;;;;;;17.92;10.57;;;14.50;99.90;;;;;;5062679;28;20059;-82
2023/05/11 17:48:16;;;;;;;13.88;10.77;;;14.50;99.90;;;;;;5063841;28;20048;-82
2023/05/11 17:50:43;;;;;;;14.23;7.45;;;14.50;99.90;;;;;;5060392;28;20037;-82
2023/05/11 17:53:09;;;;;;;11.00;6.43;;;14.50;99.90;;;;;;5064583;28;20032;-82
2023/05/11 17:55:41;;;;;;;6.85;6.15;;;14.50;99.90;;;;;;5062566;28;20024;-84
2023/05/11 17:58:08;;;;;;;6.88;6.18;;;14.40;99.90;;;;;;5066357;28;20039;-82
2023/05/11 18:00:35;;;;;;;8.60;6.55;;;14.40;99.90;;;;;;5065459;28;20079;-82
2023/05/11 18:03:01;;;;;;;7.03;6.32;;;14.30;99.90;;;;;;5058822;28;20040;-83
2023/05/11 18:05:26;;;;;;;8.68;6.57;;;14.40;99.90;;;;;;5068150;28;20051;-83
2023/05/11 18:07:53;;;;;;;7.07;6.10;;;14.30;99.90;;;;;;5058907;28;20044;-83
2023/05/11 18:10:22;;;;;;;7.13;6.43;;;14.30;99.90;;;;;;5064367;28;20035;-83
2023/05/11 18:12:47;;;;;;;8.02;5.75;;;14.30;99.90;;;;;;5061492;28;20036;-83
2023/05/11 18:15:14;;;;;;;6.47;5.30;;;14.30;99.90;;;;;;5060500;28;20234;-87
2023/05/11 18:17:40;;;;;;;6.78;5.78;;;14.30;99.90;;;;;;5062773;28;20041;-84
2023/05/11 18:20:07;;;;;;;9.60;6.70;;;14.30;99.90;;;;;;5068455;28;20344;-82
2023/05/11 18:22:33;;;;;;;10.73;6.38;;;14.20;99.90;;;;;;5062015;28;20032;-83
2023/05/11 18:24:58;;;;;;;7.93;6.30;;;14.20;99.90;;;;;;5067784;28;20493;-82
2023/05/11 18:27:24;;;;;;;7.10;5.85;;;14.20;99.90;;;;;;5064650;28;20040;-83
2023/05/11 18:29:50;;;;;;;9.25;6.43;;;14.10;99.90;;;;;;5068767;28;20039;-83
2023/05/11 18:32:17;;;;;;;7.78;6.75;;;14.10;99.90;;;;;;5064246;28;20041;-83
2023/05/11 18:34:42;;;;;;;8.70;6.95;;;14.10;99.90;;;;;;5045951;28;20033;-82
2023/05/11 18:37:08;;;;;;;12.73;7.57;;;14.10;99.90;;;;;;5065255;28;20040;-83
2023/05/11 18:39:34;;;;;;;11.65;8.07;;;14.00;99.90;;;;;;5068040;28;20037;-87
2023/05/11 18:42:00;;;;;;;7.65;6.85;;;14.10;99.90;;;;;;5064360;28;20037;-82
2023/05/11 18:44:26;;;;;;;8.00;7.00;;;14.10;99.90;;;;;;5043946;28;20492;-82
2023/05/11 18:46:52;;;;;;;8.00;6.78;;;14.10;99.90;;;;;;5062511;28;20109;-83
2023/05/11 18:49:19;;;;;;;7.20;6.50;;;14.10;99.90;;;;;;5063964;28;20059;-83
2023/05/11 18:51:45;;;;;;;8.07;7.22;;;14.10;99.90;;;;;;5061566;28;20509;-82
2023/05/11 18:54:14;;;;;;;9.75;8.27;;;14.10;99.90;;;;;;5063983;28;20410;-87
2023/05/11 18:56:40;;;;;;;8.23;6.47;;;14.10;99.90;;;;;;5064422;28;20085;-84
2023/05/11 18:59:06;;;;;;;8.82;6.35;;;14.00;99.90;;;;;;5060142;28;20033;-83
2023/05/11 19:01:32;;;;;;;11.93;6.85;;;14.00;99.90;;;;;;5067332;28;20155;-83
2023/05/11 19:03:58;;;;;;;8.05;6.70;;;14.00;99.90;;;;;;5052119;28;20032;-83
2023/05/11 19:06:23;;;;;;;10.13;6.25;;;14.00;99.90;;;;;;5061407;28;20039;-83
2023/05/11 19:08:49;;;;;;;7.25;6.30;;;13.90;99.90;;;;;;5060888;28;20056;-83
2023/05/11 19:11:16;;;;;;;11.55;5.93;;;13.90;99.90;;;;;;5061690;28;20035;-83
2023/05/11 19:13:42;;;;;;;6.25;5.57;;;13.80;99.90;;;;;;5064336;28;20047;-84
2023/05/11 19:16:08;;;;;;;6.97;6.28;;;13.80;99.90;;;;;;5063637;28;20036;-83
2023/05/11 19:18:35;;;;;;;11.80;6.93;;;13.80;99.90;;;;;;5060674;28;20039;-84
2023/05/11 19:21:04;;;;;;;13.30;5.57;;;13.80;99.90;;;;;;5058637;28;20390;-83
2023/05/11 19:23:30;;;;;;;7.90;5.35;;;13.80;99.90;;;;;;5057258;28;20777;-83
2023/05/11 19:25:59;;;;;;;6.65;5.70;;;13.80;99.90;;;;;;5062057;28;20039;-82
2023/05/11 19:28:25;;;;;;;7.88;5.45;;;13.70;99.90;;;;;;5069484;28;20048;-84
2023/05/11 19:31:04;;;;;;;6.57;5.10;;;13.70;99.90;;;;;;5063399;28;20035;-82
2023/05/11 19:33:30;;;;;;;6.57;5.22;;;13.70;99.90;;;;;;5062617;28;20048;-83
2023/05/11 19:35:55;;;;;;;5.47;4.90;;;13.70;99.90;;;;;;5047306;28;20055;-83
2023/05/11 19:38:21;;;;;;;6.25;5.50;;;13.70;99.90;;;;;;5065139;28;20036;-85
2023/05/11 19:40:50;;;;;;;5.30;4.80;;;13.70;99.90;;;;;;5067895;28;20390;-83
2023/05/11 19:43:16;;;;;;;4.85;4.38;;;13.60;99.90;;;;;;5063352;28;20037;-83
2023/05/11 19:45:45;;;;;;;5.70;4.80;;;13.60;99.90;;;;;;5059992;28;20175;-83
2023/05/11 19:48:12;;;;;;;12.50;5.25;;;13.60;99.90;;;;;;5059037;28;20060;-83
2023/05/11 19:50:38;;;;;;;6.15;5.13;;;13.50;99.90;;;;;;5057477;28;20040;-82
2023/05/11 19:53:04;;;;;;;7.43;4.93;;;13.40;99.90;;;;;;5062153;28;20037;-86
2023/05/11 19:55:30;;;;;;;5.93;4.53;;;13.40;99.90;;;;;;5063366;28;20041;-82
2023/05/11 19:57:55;;;;;;;6.40;4.95;;;13.30;99.90;;;;;;5063023;28;20028;-83
2023/05/11 20:00:24;;;;;;;5.72;5.13;;;13.20;99.90;;;;;;5059241;28;20032;-82
2023/05/11 20:02:53;;;;;;;5.35;4.60;;;13.20;99.90;;;;;;5063487;28;20094;-83
2023/05/11 20:05:22;;;;;;;6.28;4.50;;;13.10;99.90;;;;;;5063745;28;20115;-85
2023/05/11 20:07:47;;;;;;;14.32;5.60;;;13.10;99.90;;;;;;5064804;28;20059;-83
2023/05/11 20:10:13;;;;;;;9.50;5.40;;;13.10;99.90;;;;;;5065316;28;20044;-82
2023/05/11 20:12:38;;;;;;;8.13;4.90;;;13.00;99.90;;;;;;5056703;28;20421;-83
2023/05/11 20:15:07;;;;;;;8.27;4.72;;;12.90;99.90;;;;;;5064263;28;20476;-83
2023/05/11 20:17:38;;;;;;;8.65;5.05;;;12.90;99.90;;;;;;5062442;28;20611;-87
2023/05/11 20:20:04;;;;;;;11.85;5.45;;;12.80;99.90;;;;;;5064542;28;20626;-83
2023/05/11 20:22:31;;;;;;;9.73;4.90;;;12.70;99.90;;;;;;5061753;28;20032;-82
2023/05/11 20:24:56;;;;;;;7.68;4.32;;;12.60;99.90;;;;;;5059796;28;20071;-84
2023/05/11 20:27:23;;;;;;;7.55;4.57;;;12.60;99.90;;;;;;5062598;28;20049;-82
2023/05/11 20:29:49;;;;;;;8.52;4.60;;;12.60;99.90;;;;;;5063829;28;20040;-86
2023/05/11 20:32:15;;;;;;;12.43;4.32;;;12.50;99.90;;;;;;5064761;28;20170;-83
2023/05/11 20:34:40;;;;;;;8.20;4.50;;;12.50;99.90;;;;;;5062219;28;20516;-83
2023/05/11 20:37:09;;;;;;;7.35;4.50;;;12.40;99.90;;;;;;5066641;28;20044;-83
2023/05/11 20:39:35;;;;;;;7.57;4.40;;;12.30;99.90;;;;;;5063841;28;20443;-82
2023/05/11 20:42:03;;;;;;;7.75;4.40;;;12.30;99.90;;;;;;5063079;28;20024;-84
2023/05/11 20:44:28;;;;;;;4.40;4.00;;;12.30;99.90;;;;;;5062296;28;20059;-84
2023/05/11 20:46:54;;;;;;;6.68;4.00;;;12.30;99.90;;;;;;5061462;28;20041;-84
2023/05/11 20:49:22;;;;;;;9.30;4.15;;;12.20;99.90;;;;;;5058790;28;20405;-84
2023/05/11 20:51:52;;;;;;;4.60;4.20;;;12.20;99.90;;;;;;5061621;28;20091;-86
2023/05/11 20:54:21;;;;;;;4.13;3.72;;;12.10;99.90;;;;;;5062103;28;20409;-84
2023/05/11 20:56:47;;;;;;;4.50;4.10;;;12.10;99.90;;;;;;5060177;28;20051;-84
2023/05/11 20:59:12;;;;;;;3.97;3.47;;;12.10;99.90;;;;;;5061516;28;20429;-83
2023/05/11 21:01:38;;;;;;;5.03;4.30;;;12.20;99.90;;;;;;5064158;28;20039;-83
2023/05/11 21:04:05;;;;;;;5.03;4.10;;;12.20;99.90;;;;;;5061220;28;20029;-86
2023/05/11 21:06:31;;;;;;;7.50;4.75;;;12.10;99.90;;;;;;5045281;28;20041;-84
2023/05/11 21:08:58;;;;;;;3.90;3.58;;;12.10;99.90;;;;;;5061223;28;20489;-82
2023/05/11 21:11:24;;;;;;;6.38;4.20;;;12.10;99.90;;;;;;5044822;28;20071;-84
2023/05/11 21:13:49;;;;;;;9.60;4.68;;;12.10;99.90;;;;;;5045926;28;20036;-83
2023/05/11 21:16:15;;;;;;;5.43;4.88;;;12.10;99.90;;;;;;5060513;28;20047;-83
2023/05/11 21:18:42;;;;;;;13.52;4.85;;;12.10;99.90;;;;;;5062965;28;20128;-83
2023/05/11 21:21:08;;;;;;;5.10;4.10;;;12.20;99.90;;;;;;5064056;28;20040;-83
2023/05/11 21:23:34;;;;;;;5.72;4.43;;;12.10;99.90;;;;;;5060425;28;20265;-82
2023/05/11 21:26:00;;;;;;;5.22;4.68;;;12.20;99.90;;;;;;5063908;28;20387;-83
2023/05/11 21:28:27;;;;;;;10.25;4.78;;;12.20;99.90;;;;;;5063880;28;20047;-84
2023/05/11 21:30:53;;;;;;;9.45;5.32;;;12.20;99.90;;;;;;5062217;28;20508;-82
2023/05/11 21:33:19;;;;;;;7.63;4.95;;;12.30;99.90;;;;;;5065288;28;20119;-82
2023/05/11 21:35:45;;;;;;;5.75;5.10;;;12.20;99.90;;;;;;5061325;28;20090;-83
2023/05/11 21:38:13;;;;;;;9.63;5.13;;;12.20;99.90;;;;;;5060733;28;20111;-82
2023/05/11 21:40:40;;;;;;;5.47;4.85;;;12.20;99.90;;;;;;5061646;28;20029;-84
2023/05/11 21:43:06;;;;;;;5.38;4.60;;;12.20;99.90;;;;;;5065244;28;20036;-83
2023/05/11 21:45:31;;;;;;;6.95;4.97;;;12.30;99.90;;;;;;5062217;28;20036;-83
2023/05/11 21:47:58;;;;;;;7.07;5.47;;;12.30;99.90;;;;;;5061682;28;20139;-82
2023/05/11 21:50:23;;;;;;;8.48;5.70;;;12.30;99.90;;;;;;5042977;28;20405;-83
2023/05/11 21:52:49;;;;;;;9.50;5.45;;;12.30;99.90;;;;;;5065243;28;20031;-84
2023/05/11 21:55:14;;;;;;;5.78;5.18;;;12.30;99.90;;;;;;5043633;28;20036;-83
2023/05/11 21:57:40;;;;;;;6.43;5.78;;;12.30;99.90;;;;;;5062391;28;20517;-83
2023/05/11 22:00:08;;;;;;;5.55;4.97;;;12.30;99.90;;;;;;5063113;28;20040;-83
2023/05/11 22:02:33;;;;;;;4.82;4.43;;;12.30;99.90;;;;;;5062137;28;20039;-83
2023/05/11 22:04:59;;;;;;;9.27;5.50;;;12.30;99.90;;;;;;5063330;28;20495;-82
2023/05/11 22:07:24;;;;;;;14.10;5.45;;;12.30;99.90;;;;;;5061850;28;20040;-86
2023/05/11 22:09:50;;;;;;;5.53;4.43;;;12.30;99.90;;;;;;5063263;28;20226;-82
2023/05/11 22:12:15;;;;;;;5.43;4.93;;;12.20;99.90;;;;;;5056802;28;20073;-83
2023/05/11 22:14:41;;;;;;;4.97;4.57;;;12.30;99.90;;;;;;5061552;28;20040;-83
2023/05/11 22:17:07;;;;;;;4.70;4.30;;;12.30;99.90;;;;;;5061151;28;20041;-82
2023/05/11 22:19:32;;;;;;;5.15;4.65;;;12.30;99.90;;;;;;5063359;28;20612;-82
2023/05/11 22:21:59;;;;;;;7.82;4.63;;;12.30;99.90;;;;;;5064784;28;20076;-87
2023/05/11 22:24:25;;;;;;;5.90;4.97;;;12.30;99.90;;;;;;5061240;28;20079;-83
2023/05/11 22:26:53;;;;;;;4.63;4.22;;;12.20;99.90;;;;;;5064466;28;20045;-82
2023/05/11 22:29:21;;;;;;;12.25;5.32;;;12.20;99.90;;;;;;5061698;28;20039;-86
2023/05/11 22:31:47;;;;;;;11.45;4.93;;;12.20;99.90;;;;;;5055839;28;20102;-82
2023/05/11 22:34:13;;;;;;;8.02;5.30;;;12.20;99.90;;;;;;5063596;28;20489;-83
2023/05/11 22:36:39;;;;;;;5.05;4.55;;;12.20;99.90;;;;;;5063137;28;20032;-83
2023/05/11 22:39:05;;;;;;;7.97;5.00;;;12.20;99.90;;;;;;5063910;28;20127;-83
2023/05/11 22:41:31;;;;;;;5.18;4.68;;;12.20;99.90;;;;;;5062246;28;20033;-83
2023/05/11 22:44:02;;;;;;;5.18;4.68;;;12.20;99.90;;;;;;5061317;28;20383;-83
2023/05/11 22:46:27;;;;;;;11.85;4.85;;;12.20;99.90;;;;;;5057369;28;20110;-83
2023/05/11 22:48:53;;;;;;;5.82;5.22;;;12.20;99.90;;;;;;5062345;28;20339;-83
2023/05/11 22:51:18;;;;;;;4.78;4.25;;;12.10;99.90;;;;;;5062573;28;20486;-82
2023/05/11 22:53:44;;;;;;;6.07;5.40;;;12.20;99.90;;;;;;5062937;28;20043;-82
2023/05/11 22:56:11;;;;;;;8.40;5.47;;;12.10;99.90;;;;;;5061857;28;20039;-84
2023/05/11 22:58:36;;;;;;;8.18;4.80;;;12.20;99.90;;;;;;5065667;28;20064;-82
2023/05/11 23:01:02;;;;;;;8.10;4.97;;;12.20;99.90;;;;;;5064344;28;20075;-82
2023/05/11 23:03:28;;;;;;;7.07;5.18;;;12.20;99.90;;;;;;5043441;28;20036;-83
2023/05/11 23:05:54;;;;;;;5.97;5.38;;;12.20;99.90;;;;;;5043056;28;20063;-84
2023/05/11 23:08:25;;;;;;;5.20;4.68;;;12.20;99.90;;;;;;5060983;28;20429;-82
2023/05/11 23:10:54;;;;;;;5.93;3.60;;;12.20;99.90;;;;;;5059975;28;20048;-82
2023/05/11 23:13:19;;;;;;;5.85;5.25;;;12.20;99.90;;;;;;5044622;28;20056;-83
2023/05/11 23:15:45;;;;;;;12.23;5.05;;;12.20;99.90;;;;;;5060093;28;20059;-83
2023/05/11 23:18:10;;;;;;;9.43;4.57;;;12.20;99.90;;;;;;5061558;28;20098;-82
2023/05/11 23:20:36;;;;;;;8.65;4.90;;;12.20;99.90;;;;;;5061779;28;20028;-83
2023/05/11 23:23:02;;;;;;;10.10;5.53;;;12.20;99.90;;;;;;5061551;28;20032;-83
2023/05/11 23:25:28;;;;;;;5.40;4.90;;;12.20;99.90;;;;;;5059911;28;20115;-82
2023/05/11 23:27:53;;;;;;;6.90;4.85;;;12.20;99.90;;;;;;5058514;28;20056;-83
2023/05/11 23:30:20;;;;;;;8.25;4.68;;;12.20;99.90;;;;;;5060374;28;20040;-82
2023/05/11 23:32:46;;;;;;;4.95;4.43;;;12.10;99.90;;;;;;5061846;28;20071;-84
2023/05/11 23:35:11;;;;;;;12.10;5.40;;;12.20;99.90;;;;;;5062775;28;20071;-82
2023/05/11 23:37:37;;;;;;;5.65;4.80;;;12.20;99.90;;;;;;5062668;28;20044;-82
2023/05/11 23:40:04;;;;;;;5.40;4.90;;;12.10;99.90;;;;;;5056831;28;20025;-82
2023/05/11 23:42:30;;;;;;;5.05;4.65;;;12.10;99.90;;;;;;5058121;28;20074;-83
2023/05/11 23:44:56;;;;;;;5.18;4.78;;;12.10;99.90;;;;;;5056975;28;20083;-82
2023/05/11 23:47:22;;;;;;;5.32;4.82;;;12.10;99.90;;;;;;5061252;28;20044;-83
2023/05/11 23:49:48;;;;;;;6.90;5.05;;;12.10;99.90;;;;;;5062482;28;20036;-83
2023/05/11 23:52:13;;;;;;;5.68;4.32;;;12.10;99.90;;;;;;5060240;28;20430;-82
2023/05/11 23:54:39;;;;;;;9.07;4.80;;;12.10;99.90;;;;;;5042923;28;20048;-84
2023/05/11 23:57:05;;;;;;;8.77;4.32;;;12.10;99.90;;;;;;5059795;28;20041;-83
2023/05/11 23:59:30;;;;;;;9.68;4.28;;;12.10;99.90;;;;;;5060466;28;20036;-82
